createdAt,value
2024-02-19T00:00:38.865Z,88.86
2024-02-19T00:01:38.770Z,88.66
2024-02-19T00:02:38.707Z,88.56
2024-02-19T00:03:38.746Z,88.76
2024-02-19T00:04:38.865Z,88.66
2024-02-19T00:05:38.704Z,88.56
2024-02-19T00:06:38.786Z,88.45
2024-02-19T00:07:38.737Z,88.45
2024-02-19T00:08:38.607Z,88.45
2024-02-19T00:09:38.654Z,88.14
2024-02-19T00:10:38.695Z,88.35
2024-02-19T00:11:38.637Z,88.45
2024-02-19T00:12:38.724Z,88.35
2024-02-19T00:13:38.580Z,88.56
2024-02-19T00:14:38.546Z,88.45
2024-02-19T00:15:38.559Z,88.45
2024-02-19T00:16:41.181Z,88.56
2024-02-19T00:17:38.608Z,88.45
2024-02-19T00:18:38.570Z,88.76
2024-02-19T00:19:38.606Z,88.45
2024-02-19T00:20:38.448Z,88.24
2024-02-19T00:21:38.466Z,88.24
2024-02-19T00:22:38.428Z,88.35
2024-02-19T00:23:38.480Z,88.35
2024-02-19T00:24:38.465Z,88.45
2024-02-19T00:25:38.397Z,88.45
2024-02-19T00:26:38.374Z,88.35
2024-02-19T00:27:38.402Z,88.14
2024-02-19T00:28:38.367Z,88.10
2024-02-19T00:29:38.345Z,88.14
2024-02-19T00:30:38.351Z,88.04
2024-02-19T00:31:38.315Z,87.94
2024-02-19T00:32:38.433Z,87.94
2024-02-19T00:33:38.384Z,87.94
2024-02-19T00:34:38.345Z,87.84
2024-02-19T00:35:38.268Z,87.73
2024-02-19T00:36:38.255Z,87.84
2024-02-19T00:37:38.259Z,87.63
2024-02-19T00:38:38.226Z,87.73
2024-02-19T00:39:38.252Z,87.94
2024-02-19T00:40:38.187Z,87.73
2024-02-19T00:41:38.399Z,87.73
2024-02-19T00:42:38.201Z,87.73
2024-02-19T00:43:38.280Z,87.63
2024-02-19T00:44:38.131Z,87.43
2024-02-19T00:45:38.148Z,87.53
2024-02-19T00:46:38.116Z,87.73
2024-02-19T00:47:38.137Z,87.73
2024-02-19T00:48:38.223Z,87.73
2024-02-19T00:49:38.125Z,87.63
2024-02-19T00:50:38.069Z,87.63
2024-02-19T00:51:38.063Z,87.73
2024-02-19T00:52:38.040Z,87.63
2024-02-19T00:53:38.013Z,87.63
2024-02-19T00:54:38.133Z,87.53
2024-02-19T00:55:38.006Z,87.32
2024-02-19T00:56:37.990Z,87.43
2024-02-19T00:57:38.012Z,87.63
2024-02-19T00:58:37.945Z,87.63
2024-02-19T00:59:38.011Z,87.63
2024-02-19T01:00:37.945Z,87.43
2024-02-19T01:01:37.980Z,87.43
2024-02-19T01:02:37.904Z,87.63
2024-02-19T01:03:37.981Z,87.63
2024-02-19T01:04:38.014Z,87.73
2024-02-19T01:05:37.900Z,87.63
2024-02-19T01:06:37.931Z,87.73
2024-02-19T01:07:37.864Z,87.94
2024-02-19T01:08:37.809Z,87.94
2024-02-19T01:09:37.851Z,87.84
2024-02-19T01:10:37.787Z,87.73
2024-02-19T01:11:37.944Z,87.94
2024-02-19T01:12:37.788Z,87.94
2024-02-19T01:13:37.820Z,87.84
2024-02-19T01:14:37.755Z,87.94
2024-02-19T01:15:37.779Z,87.84
2024-02-19T01:16:37.762Z,87.84
2024-02-19T01:17:37.756Z,87.73
2024-02-19T01:18:37.813Z,87.73
2024-02-19T01:19:37.797Z,87.73
2024-02-19T01:20:37.751Z,87.63
2024-02-19T01:21:37.674Z,87.53
2024-02-19T01:22:37.625Z,87.43
2024-02-19T01:23:37.761Z,87.32
2024-02-19T01:24:37.608Z,87.32
2024-02-19T01:25:37.610Z,87.22
2024-02-19T01:26:37.617Z,87.32
2024-02-19T01:27:37.614Z,87.12
2024-02-19T01:28:37.555Z,87.32
2024-02-19T01:29:37.549Z,87.43
2024-02-19T01:30:37.670Z,87.53
2024-02-19T01:31:37.551Z,87.53
2024-02-19T01:32:37.512Z,87.43
2024-02-19T01:33:37.527Z,87.43
2024-02-19T01:34:37.693Z,87.32
2024-02-19T01:35:37.490Z,87.22
2024-02-19T01:36:37.494Z,87.32
2024-02-19T01:37:37.457Z,87.28
2024-02-19T01:38:37.430Z,87.28
2024-02-19T01:39:37.518Z,87.28
2024-02-19T01:40:37.413Z,87.18
2024-02-19T01:41:37.463Z,87.18
2024-02-19T01:42:37.431Z,87.08
2024-02-19T01:43:37.399Z,87.18
2024-02-19T01:44:37.452Z,87.18
2024-02-19T01:45:37.421Z,87.28
2024-02-19T01:46:37.304Z,87.18
2024-02-19T01:47:37.389Z,87.08
2024-02-19T01:48:37.371Z,87.28
2024-02-19T01:49:37.422Z,87.38
2024-02-19T01:50:37.373Z,87.28
2024-02-19T01:51:37.334Z,87.28
2024-02-19T01:52:37.239Z,87.38
2024-02-19T01:53:37.337Z,87.38
2024-02-19T01:54:37.325Z,87.38
2024-02-19T01:55:37.209Z,87.49
2024-02-19T01:56:37.176Z,87.70
2024-02-19T01:57:37.196Z,87.70
2024-02-19T01:58:37.183Z,87.90
2024-02-19T01:59:37.176Z,88.00
2024-02-19T02:00:37.345Z,88.41
2024-02-19T02:01:37.185Z,88.21
2024-02-19T02:02:37.137Z,88.51
2024-02-19T02:03:37.172Z,88.51
2024-02-19T02:04:37.083Z,88.72
2024-02-19T02:05:37.097Z,88.82
2024-02-19T02:06:37.190Z,88.72
2024-02-19T02:07:37.030Z,88.92
2024-02-19T02:08:37.091Z,88.92
2024-02-19T02:09:37.047Z,89.03
2024-02-19T02:10:37.060Z,89.03
2024-02-19T02:11:37.005Z,89.23
2024-02-19T02:12:37.128Z,89.13
2024-02-19T02:13:36.982Z,88.92
2024-02-19T02:14:36.952Z,88.92
2024-02-19T02:15:36.991Z,89.13
2024-02-19T02:16:36.941Z,89.03
2024-02-19T02:17:37.173Z,88.72
2024-02-19T02:18:37.062Z,89.03
2024-02-19T02:19:36.982Z,88.92
2024-02-19T02:20:36.872Z,89.23
2024-02-19T02:21:36.908Z,89.23
2024-02-19T02:22:36.869Z,89.03
2024-02-19T02:23:36.822Z,89.23
2024-02-19T02:24:36.959Z,89.13
2024-02-19T02:25:36.829Z,89.33
2024-02-19T02:26:36.782Z,89.23
2024-02-19T02:27:36.829Z,89.33
2024-02-19T02:28:36.743Z,89.33
2024-02-19T02:29:36.767Z,89.33
2024-02-19T02:30:36.779Z,89.33
2024-02-19T02:31:36.727Z,89.03
2024-02-19T02:32:36.755Z,89.23
2024-02-19T02:33:37.007Z,88.92
2024-02-19T02:34:36.749Z,88.92
2024-02-19T02:35:36.666Z,88.92
2024-02-19T02:36:36.698Z,88.72
2024-02-19T02:37:36.644Z,88.31
2024-02-19T02:38:36.629Z,88.31
2024-02-19T02:39:36.643Z,88.10
2024-02-19T02:40:36.608Z,88.10
2024-02-19T02:41:36.584Z,88.00
2024-02-19T02:42:36.660Z,87.90
2024-02-19T02:43:36.560Z,87.90
2024-02-19T02:44:36.534Z,87.49
2024-02-19T02:45:36.586Z,87.38
2024-02-19T02:46:36.523Z,87.49
2024-02-19T02:47:36.541Z,87.38
2024-02-19T02:48:36.577Z,87.28
2024-02-19T02:49:36.517Z,87.38
2024-02-19T02:50:36.481Z,87.28
2024-02-19T02:51:36.467Z,87.38
2024-02-19T02:52:36.428Z,87.70
2024-02-19T02:53:36.422Z,87.49
2024-02-19T02:54:36.420Z,87.49
2024-02-19T02:55:36.426Z,87.28
2024-02-19T02:56:36.372Z,87.08
2024-02-19T02:57:36.399Z,87.28
2024-02-19T02:58:36.353Z,86.98
2024-02-19T02:59:36.373Z,86.98
2024-02-19T03:00:36.386Z,86.87
2024-02-19T03:01:36.370Z,86.77
2024-02-19T03:02:36.296Z,86.66
2024-02-19T03:03:36.367Z,86.77
2024-02-19T03:04:36.443Z,86.66
2024-02-19T03:05:36.280Z,86.57
2024-02-19T03:06:36.342Z,86.36
2024-02-19T03:07:36.347Z,86.15
2024-02-19T03:08:36.259Z,86.05
2024-02-19T03:09:36.215Z,86.05
2024-02-19T03:10:36.214Z,86.05
2024-02-19T03:11:36.239Z,86.09
2024-02-19T03:12:36.212Z,85.89
2024-02-19T03:13:36.146Z,85.89
2024-02-19T03:14:36.170Z,85.89
2024-02-19T03:15:36.150Z,85.78
2024-02-19T03:16:36.116Z,85.68
2024-02-19T03:17:36.126Z,85.68
2024-02-19T03:18:36.279Z,85.58
2024-02-19T03:19:36.133Z,85.68
2024-02-19T03:20:36.075Z,85.58
2024-02-19T03:21:36.073Z,85.58
2024-02-19T03:22:36.062Z,85.38
2024-02-19T03:23:36.045Z,85.27
2024-02-19T03:24:36.068Z,85.38
2024-02-19T03:25:36.034Z,85.27
2024-02-19T03:26:41.101Z,85.27
2024-02-19T03:27:37.056Z,85.38
2024-02-19T03:28:35.986Z,85.38
2024-02-19T03:29:35.941Z,85.38
2024-02-19T03:30:36.032Z,85.27
2024-02-19T03:31:35.931Z,85.27
2024-02-19T03:32:35.949Z,85.17
2024-02-19T03:33:35.990Z,85.17
2024-02-19T03:34:35.947Z,85.06
2024-02-19T03:35:35.859Z,85.17
2024-02-19T03:36:35.954Z,85.06
2024-02-19T03:37:35.845Z,85.17
2024-02-19T03:38:35.833Z,85.17
2024-02-19T03:39:35.803Z,85.17
2024-02-19T03:40:35.806Z,85.17
2024-02-19T03:41:35.792Z,85.31
2024-02-19T03:42:35.806Z,84.80
2024-02-19T03:43:35.769Z,85.00
2024-02-19T03:44:35.740Z,85.00
2024-02-19T03:45:35.760Z,84.90
2024-02-19T03:46:35.715Z,85.00
2024-02-19T03:47:35.751Z,84.90
2024-02-19T03:48:35.764Z,84.80
2024-02-19T03:49:35.842Z,84.90
2024-02-19T03:50:35.670Z,84.90
2024-02-19T03:51:35.657Z,85.11
2024-02-19T03:52:35.697Z,85.21
2024-02-19T03:53:35.616Z,85.21
2024-02-19T03:54:35.701Z,85.31
2024-02-19T03:55:35.647Z,85.31
2024-02-19T03:56:35.596Z,85.31
2024-02-19T03:57:35.596Z,85.41
2024-02-19T03:58:35.557Z,85.41
2024-02-19T03:59:35.534Z,85.62
2024-02-19T04:00:35.587Z,85.76
2024-02-19T04:01:35.627Z,85.66
2024-02-19T04:02:35.533Z,85.66
2024-02-19T04:03:35.576Z,85.97
2024-02-19T04:04:35.554Z,86.07
2024-02-19T04:05:35.461Z,86.17
2024-02-19T04:06:35.531Z,86.27
2024-02-19T04:07:35.453Z,86.38
2024-02-19T04:08:35.444Z,86.48
2024-02-19T04:09:35.408Z,86.48
2024-02-19T04:10:35.418Z,86.58
2024-02-19T04:11:35.436Z,86.79
2024-02-19T04:12:35.369Z,86.79
2024-02-19T04:13:35.353Z,86.99
2024-02-19T04:14:35.371Z,87.13
2024-02-19T04:15:35.327Z,87.13
2024-02-19T04:16:35.330Z,87.24
2024-02-19T04:17:35.365Z,87.34
2024-02-19T04:18:35.365Z,87.45
2024-02-19T04:19:35.361Z,87.65
2024-02-19T04:20:35.289Z,87.85
2024-02-19T04:21:35.255Z,87.96
2024-02-19T04:22:35.249Z,87.85
2024-02-19T04:23:35.233Z,87.75
2024-02-19T04:24:35.222Z,87.55
2024-02-19T04:25:35.205Z,87.55
2024-02-19T04:26:35.181Z,87.55
2024-02-19T04:27:35.184Z,87.65
2024-02-19T04:28:35.156Z,87.85
2024-02-19T04:29:35.144Z,87.96
2024-02-19T04:30:35.157Z,87.90
2024-02-19T04:31:35.148Z,87.79
2024-02-19T04:32:35.188Z,87.90
2024-02-19T04:33:35.178Z,88.00
2024-02-19T04:34:39.326Z,88.20
2024-02-19T04:35:36.068Z,88.31
2024-02-19T04:36:35.048Z,88.31
2024-02-19T04:37:35.029Z,88.31
2024-02-19T04:38:35.047Z,88.41
2024-02-19T04:39:35.031Z,88.41
2024-02-19T04:40:35.009Z,88.62
2024-02-19T04:41:34.997Z,88.51
2024-02-19T04:42:34.989Z,88.51
2024-02-19T04:43:34.974Z,88.51
2024-02-19T04:44:34.967Z,88.62
2024-02-19T04:45:34.953Z,88.51
2024-02-19T04:46:34.944Z,88.51
2024-02-19T04:47:34.925Z,88.72
2024-02-19T04:48:34.903Z,88.82
2024-02-19T04:49:34.950Z,88.92
2024-02-19T04:50:34.882Z,89.07
2024-02-19T04:51:34.841Z,88.96
2024-02-19T04:52:34.868Z,89.28
2024-02-19T04:53:34.828Z,89.28
2024-02-19T04:54:34.833Z,89.28
2024-02-19T04:55:34.798Z,89.17
2024-02-19T04:56:34.793Z,89.17
2024-02-19T04:57:34.785Z,89.17
2024-02-19T04:58:34.806Z,89.48
2024-02-19T04:59:34.744Z,89.48
2024-02-19T05:00:34.787Z,89.38
2024-02-19T05:01:34.801Z,89.58
2024-02-19T05:02:34.734Z,89.58
2024-02-19T05:03:34.748Z,89.69
2024-02-19T05:04:34.894Z,89.89
2024-02-19T05:05:34.688Z,89.89
2024-02-19T05:06:34.695Z,89.79
2024-02-19T05:07:34.685Z,90.00
2024-02-19T05:08:34.646Z,90.34
2024-02-19T05:09:34.628Z,90.45
2024-02-19T05:10:34.626Z,90.24
2024-02-19T05:11:34.604Z,90.45
2024-02-19T05:12:34.611Z,90.24
2024-02-19T05:13:34.564Z,90.14
2024-02-19T05:14:34.572Z,90.34
2024-02-19T05:15:34.540Z,90.45
2024-02-19T05:16:34.521Z,90.45
2024-02-19T05:17:34.566Z,90.45
2024-02-19T05:18:34.495Z,90.24
2024-02-19T05:19:34.554Z,90.45
2024-02-19T05:20:34.480Z,90.45
2024-02-19T05:21:34.461Z,90.66
2024-02-19T05:22:34.453Z,90.75
2024-02-19T05:23:34.438Z,90.66
2024-02-19T05:24:34.427Z,90.55
2024-02-19T05:25:34.406Z,90.66
2024-02-19T05:26:34.433Z,90.66
2024-02-19T05:27:34.396Z,90.75
2024-02-19T05:28:34.352Z,90.66
2024-02-19T05:29:34.365Z,90.86
2024-02-19T05:30:34.350Z,91.38
2024-02-19T05:31:34.342Z,91.68
2024-02-19T05:32:34.366Z,91.68
2024-02-19T05:33:34.388Z,91.78
2024-02-19T05:34:34.282Z,91.99
2024-02-19T05:35:34.323Z,91.89
2024-02-19T05:36:34.293Z,91.83
2024-02-19T05:37:34.262Z,91.52
2024-02-19T05:38:36.865Z,91.31
2024-02-19T05:39:34.206Z,91.52
2024-02-19T05:40:34.237Z,91.21
2024-02-19T05:41:34.198Z,91.31
2024-02-19T05:42:34.193Z,91.11
2024-02-19T05:43:34.177Z,91.21
2024-02-19T05:44:34.177Z,91.21
2024-02-19T05:45:34.150Z,91.11
2024-02-19T05:46:34.136Z,91.72
2024-02-19T05:47:34.159Z,91.52
2024-02-19T05:48:34.203Z,91.52
2024-02-19T05:49:34.324Z,91.62
2024-02-19T05:50:34.101Z,91.62
2024-02-19T05:51:34.078Z,91.72
2024-02-19T05:52:34.047Z,91.72
2024-02-19T05:53:34.040Z,91.93
2024-02-19T05:54:34.016Z,92.03
2024-02-19T05:55:34.037Z,92.34
2024-02-19T05:56:34.204Z,92.24
2024-02-19T05:57:33.971Z,92.34
2024-02-19T05:58:33.975Z,92.34
2024-02-19T05:59:34.034Z,92.44
2024-02-19T06:00:33.949Z,92.44
2024-02-19T06:01:34.061Z,92.34
2024-02-19T06:02:34.096Z,92.55
2024-02-19T06:03:33.912Z,92.44
2024-02-19T06:04:34.152Z,92.44
2024-02-19T06:05:33.957Z,92.34
2024-02-19T06:06:33.908Z,92.34
2024-02-19T06:07:33.902Z,92.14
2024-02-19T06:08:33.849Z,92.34
2024-02-19T06:09:33.823Z,92.55
2024-02-19T06:10:33.851Z,92.96
2024-02-19T06:11:33.811Z,92.96
2024-02-19T06:12:33.819Z,92.86
2024-02-19T06:13:33.779Z,93.06
2024-02-19T06:14:33.813Z,93.16
2024-02-19T06:15:33.780Z,92.76
2024-02-19T06:16:33.736Z,93.06
2024-02-19T06:17:33.973Z,93.27
2024-02-19T06:18:33.794Z,93.27
2024-02-19T06:19:33.733Z,93.27
2024-02-19T06:20:33.677Z,93.27
2024-02-19T06:21:33.670Z,93.37
2024-02-19T06:22:33.654Z,93.37
2024-02-19T06:23:33.645Z,93.27
2024-02-19T06:24:33.695Z,93.16
2024-02-19T06:25:33.608Z,93.02
2024-02-19T06:26:33.608Z,93.02
2024-02-19T06:27:33.615Z,93.02
2024-02-19T06:28:33.605Z,93.02
2024-02-19T06:29:33.573Z,93.02
2024-02-19T06:30:33.576Z,92.82
2024-02-19T06:31:33.530Z,92.82
2024-02-19T06:32:33.533Z,92.92
2024-02-19T06:33:33.566Z,92.92
2024-02-19T06:34:33.607Z,92.92
2024-02-19T06:35:33.607Z,92.61
2024-02-19T06:36:33.485Z,92.71
2024-02-19T06:37:33.464Z,92.40
2024-02-19T06:38:33.490Z,91.99
2024-02-19T06:39:33.432Z,91.89
2024-02-19T06:40:33.462Z,91.78
2024-02-19T06:41:33.397Z,91.78
2024-02-19T06:42:33.407Z,91.78
2024-02-19T06:43:33.410Z,91.58
2024-02-19T06:44:33.388Z,91.17
2024-02-19T06:45:33.353Z,91.06
2024-02-19T06:46:33.355Z,90.96
2024-02-19T06:47:33.368Z,90.96
2024-02-19T06:48:33.335Z,90.86
2024-02-19T06:49:33.464Z,90.96
2024-02-19T06:50:33.358Z,90.66
2024-02-19T06:51:33.260Z,90.66
2024-02-19T06:52:33.269Z,90.45
2024-02-19T06:53:33.276Z,90.34
2024-02-19T06:54:35.886Z,90.24
2024-02-19T06:55:33.350Z,89.94
2024-02-19T06:56:33.213Z,89.73
2024-02-19T06:57:33.231Z,89.73
2024-02-19T06:58:33.253Z,89.62
2024-02-19T06:59:33.162Z,89.73
2024-02-19T07:00:33.223Z,89.73
2024-02-19T07:01:33.197Z,89.73
2024-02-19T07:02:33.139Z,89.83
2024-02-19T07:03:33.150Z,89.73
2024-02-19T07:04:33.195Z,89.62
2024-02-19T07:05:33.302Z,89.52
2024-02-19T07:06:33.114Z,89.62
2024-02-19T07:07:33.088Z,89.73
2024-02-19T07:08:33.052Z,89.52
2024-02-19T07:09:33.043Z,89.31
2024-02-19T07:10:33.069Z,89.01
2024-02-19T07:11:35.220Z,89.11
2024-02-19T07:12:33.022Z,89.22
2024-02-19T07:13:33.020Z,89.22
2024-02-19T07:14:32.970Z,89.31
2024-02-19T07:15:32.949Z,89.31
2024-02-19T07:16:33.038Z,89.11
2024-02-19T07:17:33.020Z,89.31
2024-02-19T07:18:33.011Z,89.31
2024-02-19T07:19:33.063Z,89.22
2024-02-19T07:20:32.897Z,89.11
2024-02-19T07:21:32.894Z,88.90
2024-02-19T07:22:32.912Z,88.90
2024-02-19T07:23:32.846Z,88.90
2024-02-19T07:24:32.830Z,88.90
2024-02-19T07:25:32.889Z,88.80
2024-02-19T07:26:32.830Z,88.76
2024-02-19T07:27:32.811Z,88.66
2024-02-19T07:28:32.805Z,88.56
2024-02-19T07:29:32.809Z,88.45
2024-02-19T07:30:33.432Z,88.45
2024-02-19T07:31:32.815Z,88.24
2024-02-19T07:32:32.978Z,87.94
2024-02-19T07:33:33.007Z,87.73
2024-02-19T07:34:32.857Z,87.73
2024-02-19T07:35:32.709Z,87.94
2024-02-19T07:36:32.709Z,87.84
2024-02-19T07:37:32.715Z,87.73
2024-02-19T07:38:32.681Z,87.63
2024-02-19T07:39:33.028Z,87.32
2024-02-19T07:40:35.421Z,87.52
2024-02-19T07:41:32.633Z,87.22
2024-02-19T07:42:32.608Z,86.91
2024-02-19T07:43:32.623Z,87.01
2024-02-19T07:44:32.574Z,87.01
2024-02-19T07:45:32.588Z,87.01
2024-02-19T07:46:32.611Z,86.80
2024-02-19T07:47:32.540Z,86.70
2024-02-19T07:48:32.584Z,86.70
2024-02-19T07:49:32.679Z,86.77
2024-02-19T07:50:32.491Z,86.77
2024-02-19T07:51:32.497Z,86.66
2024-02-19T07:52:32.566Z,86.56
2024-02-19T07:53:32.446Z,86.46
2024-02-19T07:54:32.437Z,86.25
2024-02-19T07:55:32.512Z,85.88
2024-02-19T07:56:32.433Z,85.94
2024-02-19T07:57:32.394Z,86.08
2024-02-19T07:58:32.409Z,86.08
2024-02-19T07:59:32.388Z,85.98
2024-02-19T08:00:32.398Z,85.98
2024-02-19T08:01:32.576Z,85.88
2024-02-19T08:02:32.326Z,85.88
2024-02-19T08:03:32.402Z,85.88
2024-02-19T08:04:32.420Z,85.78
2024-02-19T08:05:32.515Z,85.78
2024-02-19T08:06:32.298Z,85.68
2024-02-19T08:07:32.312Z,85.36
2024-02-19T08:08:32.256Z,85.36
2024-02-19T08:09:32.251Z,85.36
2024-02-19T08:10:32.314Z,85.57
2024-02-19T08:11:32.228Z,85.57
2024-02-19T08:12:32.296Z,85.57
2024-02-19T08:13:32.301Z,85.47
2024-02-19T08:14:32.189Z,85.57
2024-02-19T08:15:32.176Z,85.47
2024-02-19T08:16:32.181Z,85.47
2024-02-19T08:17:32.209Z,85.57
2024-02-19T08:18:32.228Z,85.78
2024-02-19T08:19:32.209Z,85.57
2024-02-19T08:20:32.111Z,85.57
2024-02-19T08:21:32.107Z,85.47
2024-02-19T08:22:32.100Z,85.57
2024-02-19T08:23:32.056Z,85.78
2024-02-19T08:24:32.059Z,85.68
2024-02-19T08:25:32.106Z,85.57
2024-02-19T08:26:32.016Z,85.68
2024-02-19T08:27:32.021Z,85.68
2024-02-19T08:28:32.077Z,85.57
2024-02-19T08:29:32.001Z,85.68
2024-02-19T08:30:32.007Z,85.68
2024-02-19T08:31:32.017Z,85.57
2024-02-19T08:32:32.008Z,85.68
2024-02-19T08:33:32.048Z,85.68
2024-02-19T08:34:32.022Z,85.68
2024-02-19T08:35:32.167Z,85.68
2024-02-19T08:36:31.876Z,85.78
2024-02-19T08:37:31.941Z,85.78
2024-02-19T08:38:31.906Z,85.88
2024-02-19T08:39:31.850Z,85.88
2024-02-19T08:40:31.904Z,85.78
2024-02-19T08:41:31.842Z,85.57
2024-02-19T08:42:31.802Z,85.47
2024-02-19T08:43:31.818Z,85.16
2024-02-19T08:44:31.778Z,85.16
2024-02-19T08:45:35.902Z,85.22
2024-02-19T08:46:32.833Z,85.33
2024-02-19T08:47:31.774Z,85.33
2024-02-19T08:48:31.779Z,85.22
2024-02-19T08:49:31.770Z,85.12
2024-02-19T08:50:31.703Z,85.02
2024-02-19T08:51:31.715Z,84.91
2024-02-19T08:52:31.696Z,84.81
2024-02-19T08:53:31.672Z,84.81
2024-02-19T08:54:31.641Z,84.91
2024-02-19T08:55:31.725Z,84.91
2024-02-19T08:56:31.619Z,85.02
2024-02-19T08:57:31.622Z,85.02
2024-02-19T08:58:31.646Z,84.91
2024-02-19T08:59:31.595Z,84.91
2024-02-19T09:00:33.980Z,84.91
2024-02-19T09:01:31.625Z,85.02
2024-02-19T09:02:31.558Z,84.81
2024-02-19T09:03:31.568Z,84.71
2024-02-19T09:04:31.662Z,84.61
2024-02-19T09:05:31.504Z,84.50
2024-02-19T09:06:31.515Z,84.40
2024-02-19T09:07:31.546Z,84.40
2024-02-19T09:08:31.453Z,84.30
2024-02-19T09:09:31.455Z,84.40
2024-02-19T09:10:31.494Z,84.30
2024-02-19T09:11:31.486Z,84.50
2024-02-19T09:12:31.440Z,84.40
2024-02-19T09:13:31.427Z,84.50
2024-02-19T09:14:31.396Z,84.61
2024-02-19T09:15:31.369Z,84.50
2024-02-19T09:16:31.386Z,84.50
2024-02-19T09:17:31.400Z,84.47
2024-02-19T09:18:31.358Z,84.16
2024-02-19T09:19:31.474Z,84.05
2024-02-19T09:20:31.322Z,84.05
2024-02-19T09:21:31.309Z,84.26
2024-02-19T09:22:31.324Z,84.05
2024-02-19T09:23:31.734Z,84.05
2024-02-19T09:24:31.257Z,84.05
2024-02-19T09:25:31.306Z,83.85
2024-02-19T09:26:31.233Z,83.85
2024-02-19T09:27:31.242Z,83.75
2024-02-19T09:28:31.268Z,83.95
2024-02-19T09:29:33.903Z,84.05
2024-02-19T09:30:31.180Z,83.95
2024-02-19T09:31:31.213Z,83.85
2024-02-19T09:32:31.149Z,83.75
2024-02-19T09:33:31.213Z,83.64
2024-02-19T09:34:31.188Z,83.70
2024-02-19T09:35:31.129Z,83.91
2024-02-19T09:36:31.127Z,83.70
2024-02-19T09:37:31.110Z,83.61
2024-02-19T09:38:31.059Z,83.19
2024-02-19T09:39:31.066Z,83.09
2024-02-19T09:40:31.078Z,83.09
2024-02-19T09:41:31.037Z,82.99
2024-02-19T09:42:31.008Z,82.78
2024-02-19T09:43:31.070Z,82.89
2024-02-19T09:44:31.050Z,82.89
2024-02-19T09:45:30.997Z,82.89
2024-02-19T09:46:30.982Z,83.09
2024-02-19T09:47:31.070Z,82.95
2024-02-19T09:48:31.007Z,82.75
2024-02-19T09:49:30.953Z,82.54
2024-02-19T09:50:31.680Z,82.64
2024-02-19T09:51:37.071Z,82.64
2024-02-19T09:52:31.996Z,82.43
2024-02-19T09:53:30.901Z,82.23
2024-02-19T09:54:31.609Z,82.54
2024-02-19T09:55:30.894Z,82.54
2024-02-19T09:56:30.849Z,82.33
2024-02-19T09:57:30.809Z,82.23
2024-02-19T09:58:30.852Z,82.40
2024-02-19T09:59:30.807Z,82.29
2024-02-19T10:00:30.790Z,81.99
2024-02-19T10:01:30.855Z,81.88
2024-02-19T10:02:30.754Z,81.78
2024-02-19T10:03:30.747Z,82.09
2024-02-19T10:04:30.778Z,81.78
2024-02-19T10:05:30.939Z,81.57
2024-02-19T10:06:31.045Z,81.99
2024-02-19T10:07:30.723Z,81.88
2024-02-19T10:08:30.675Z,81.68
2024-02-19T10:09:30.678Z,81.57
2024-02-19T10:10:30.710Z,81.54
2024-02-19T10:11:30.649Z,81.13
2024-02-19T10:12:30.972Z,81.23
2024-02-19T10:13:30.630Z,81.23
2024-02-19T10:14:30.596Z,81.43
2024-02-19T10:15:30.571Z,81.02
2024-02-19T10:16:30.614Z,80.92
2024-02-19T10:17:30.866Z,81.02
2024-02-19T10:18:30.623Z,81.02
2024-02-19T10:19:31.394Z,81.02
2024-02-19T10:20:31.995Z,80.92
2024-02-19T10:21:30.491Z,80.82
2024-02-19T10:22:30.487Z,81.02
2024-02-19T10:23:31.218Z,80.82
2024-02-19T10:24:30.467Z,80.51
2024-02-19T10:25:30.478Z,80.72
2024-02-19T10:26:30.419Z,80.62
2024-02-19T10:27:30.430Z,80.82
2024-02-19T10:28:30.420Z,80.92
2024-02-19T10:29:30.403Z,80.92
2024-02-19T10:30:30.366Z,80.72
2024-02-19T10:31:30.417Z,80.72
2024-02-19T10:32:30.554Z,80.92
2024-02-19T10:33:30.439Z,80.92
2024-02-19T10:34:30.416Z,80.62
2024-02-19T10:35:30.314Z,80.51
2024-02-19T10:36:30.299Z,80.62
2024-02-19T10:37:30.321Z,80.62
2024-02-19T10:38:30.265Z,80.62
2024-02-19T10:39:30.277Z,80.72
2024-02-19T10:40:30.267Z,80.72
2024-02-19T10:41:30.247Z,81.02
2024-02-19T10:42:30.221Z,80.88
2024-02-19T10:43:30.249Z,80.78
2024-02-19T10:44:30.216Z,80.88
2024-02-19T10:45:30.176Z,80.68
2024-02-19T10:46:30.226Z,80.78
2024-02-19T10:47:30.201Z,80.37
2024-02-19T10:48:30.213Z,80.47
2024-02-19T10:49:30.232Z,80.27
2024-02-19T10:50:30.109Z,80.37
2024-02-19T10:51:30.112Z,80.27
2024-02-19T10:52:30.136Z,80.37
2024-02-19T10:53:30.069Z,80.37
2024-02-19T10:54:30.051Z,80.37
2024-02-19T10:55:40.931Z,79.96
2024-02-19T10:56:31.110Z,79.82
2024-02-19T10:57:30.038Z,79.93
2024-02-19T10:58:30.068Z,79.82
2024-02-19T10:59:29.987Z,80.13
2024-02-19T11:00:29.978Z,79.93
2024-02-19T11:01:30.046Z,80.03
2024-02-19T11:02:30.036Z,79.82
2024-02-19T11:03:29.980Z,79.62
2024-02-19T11:04:29.969Z,79.72
2024-02-19T11:05:29.956Z,79.82
2024-02-19T11:06:30.991Z,80.03
2024-02-19T11:07:29.962Z,80.03
2024-02-19T11:08:29.856Z,80.03
2024-02-19T11:09:30.766Z,79.62
2024-02-19T11:10:29.970Z,79.62
2024-02-19T11:11:29.945Z,79.52
2024-02-19T11:12:30.467Z,79.41
2024-02-19T11:13:29.894Z,79.52
2024-02-19T11:14:29.791Z,79.72
2024-02-19T11:15:29.785Z,79.96
2024-02-19T11:16:30.164Z,80.07
2024-02-19T11:17:29.821Z,79.96
2024-02-19T11:18:29.767Z,79.96
2024-02-19T11:19:30.002Z,80.07
2024-02-19T11:20:29.723Z,80.07
2024-02-19T11:21:29.688Z,79.96
2024-02-19T11:22:29.779Z,79.86
2024-02-19T11:23:29.665Z,79.96
2024-02-19T11:24:29.637Z,80.17
2024-02-19T11:25:29.903Z,79.96
2024-02-19T11:26:29.645Z,79.96
2024-02-19T11:27:29.659Z,80.07
2024-02-19T11:28:29.623Z,80.17
2024-02-19T11:29:36.574Z,80.27
2024-02-19T11:30:30.590Z,80.23
2024-02-19T11:31:29.640Z,80.23
2024-02-19T11:32:29.646Z,80.03
2024-02-19T11:33:29.638Z,79.93
2024-02-19T11:34:29.628Z,80.03
2024-02-19T11:35:30.957Z,79.93
2024-02-19T11:36:29.495Z,79.93
2024-02-19T11:37:29.540Z,80.33
2024-02-19T11:38:29.475Z,80.13
2024-02-19T11:39:29.484Z,79.93
2024-02-19T11:40:29.483Z,79.52
2024-02-19T11:41:29.431Z,79.52
2024-02-19T11:42:29.401Z,79.58
2024-02-19T11:43:29.708Z,79.48
2024-02-19T11:44:29.437Z,79.38
2024-02-19T11:45:29.377Z,79.79
2024-02-19T11:46:29.394Z,79.79
2024-02-19T11:47:29.388Z,79.79
2024-02-19T11:48:29.465Z,79.79
2024-02-19T11:49:29.468Z,79.89
2024-02-19T11:50:29.304Z,79.58
2024-02-19T11:51:29.308Z,79.48
2024-02-19T11:52:29.304Z,79.17
2024-02-19T11:53:29.319Z,78.86
2024-02-19T11:54:29.255Z,79.07
2024-02-19T11:55:29.373Z,78.86
2024-02-19T11:56:29.226Z,78.97
2024-02-19T11:57:29.235Z,78.86
2024-02-19T11:58:29.293Z,78.56
2024-02-19T11:59:29.183Z,78.66
2024-02-19T12:00:29.200Z,78.86
2024-02-19T12:01:29.264Z,78.63
2024-02-19T12:02:29.217Z,78.83
2024-02-19T12:03:29.138Z,78.93
2024-02-19T12:04:29.213Z,78.31
2024-02-19T12:05:29.478Z,78.21
2024-02-19T12:06:29.139Z,78.21
2024-02-19T12:07:30.657Z,78.42
2024-02-19T12:08:29.080Z,78.52
2024-02-19T12:09:29.079Z,78.69
2024-02-19T12:10:29.252Z,78.69
2024-02-19T12:11:29.537Z,78.69
2024-02-19T12:12:29.032Z,79.00
2024-02-19T12:13:29.054Z,79.00
2024-02-19T12:14:28.979Z,78.79
2024-02-19T12:15:28.964Z,78.59
2024-02-19T12:16:29.047Z,78.89
2024-02-19T12:17:31.033Z,78.89
2024-02-19T12:18:28.999Z,79.00
2024-02-19T12:19:28.963Z,79.00
2024-02-19T12:20:28.979Z,79.00
2024-02-19T12:21:28.897Z,78.69
2024-02-19T12:22:28.939Z,78.79
2024-02-19T12:23:28.849Z,78.69
2024-02-19T12:24:28.860Z,78.49
2024-02-19T12:25:28.922Z,78.49
2024-02-19T12:26:28.826Z,78.38
2024-02-19T12:27:28.827Z,77.97
2024-02-19T12:28:28.896Z,77.67
2024-02-19T12:29:28.772Z,77.76
2024-02-19T12:30:28.790Z,77.83
2024-02-19T12:31:28.879Z,77.94
2024-02-19T12:32:28.783Z,78.34
2024-02-19T12:33:28.842Z,78.65
2024-02-19T12:34:28.809Z,78.96
2024-02-19T12:35:28.868Z,78.75
2024-02-19T12:36:28.769Z,78.86
2024-02-19T12:37:28.691Z,78.75
2024-02-19T12:38:28.672Z,78.86
2024-02-19T12:39:28.671Z,78.96
2024-02-19T12:40:28.712Z,78.86
2024-02-19T12:41:28.611Z,78.75
2024-02-19T12:42:28.647Z,78.75
2024-02-19T12:43:28.675Z,78.55
2024-02-19T12:44:28.622Z,78.65
2024-02-19T12:45:28.601Z,78.75
2024-02-19T12:46:28.672Z,78.55
2024-02-19T12:47:28.596Z,78.24
2024-02-19T12:48:28.684Z,77.94
2024-02-19T12:49:28.708Z,78.24
2024-02-19T12:50:28.612Z,78.34
2024-02-19T12:51:28.580Z,78.24
2024-02-19T12:52:28.907Z,78.04